Time;durP1;ratioP1;P1;durP2;ratioP2;P2;SDS_P1;SDS_P2;PMS_P1;PMS_P2;Temp;Humidity;BMP_temperature;BMP_pressure;BME280_temperature;BME280_humidity;BME280_pressure;Samples;Min_cycle;Max_cycle;Signal;HPM_P1;HPM_P2
2021/06/10 00:00:24;;;;;;;4.93;2.90;;;20.00;50.40;;;;;;4953944;29;20110;-72
2021/06/10 00:02:50;;;;;;;4.40;2.35;;;20.00;51.10;;;;;;4954309;29;20035;-72
2021/06/10 00:05:19;;;;;;;5.22;2.65;;;20.00;50.80;;;;;;4960452;29;20102;-72
2021/06/10 00:07:46;;;;;;;4.68;2.75;;;20.00;51.30;;;;;;4958875;29;20091;-72
2021/06/10 00:10:15;;;;;;;4.60;2.60;;;20.00;50.90;;;;;;4960144;29;20384;-72
2021/06/10 00:12:42;;;;;;;4.55;3.20;;;20.00;50.60;;;;;;4960062;28;20031;-72
2021/06/10 00:15:20;;;;;;;4.40;2.67;;;20.00;51.00;;;;;;4960294;28;20134;-73
2021/06/10 00:17:46;;;;;;;4.30;2.78;;;19.90;50.70;;;;;;4958375;28;20070;-72
2021/06/10 00:20:14;;;;;;;4.50;2.80;;;19.90;50.80;;;;;;4959772;28;20031;-73
2021/06/10 00:22:40;;;;;;;4.97;3.40;;;19.90;51.30;;;;;;4959330;28;20033;-72
2021/06/10 00:25:07;;;;;;;5.97;3.13;;;19.90;51.60;;;;;;4959911;28;20027;-73
2021/06/10 00:27:34;;;;;;;4.68;3.00;;;19.90;51.70;;;;;;4959737;28;20038;-73
2021/06/10 00:30:01;;;;;;;4.88;3.08;;;19.80;51.30;;;;;;4953984;28;20027;-73
2021/06/10 00:32:26;;;;;;;4.43;2.85;;;19.80;51.70;;;;;;4959762;28;20581;-73
2021/06/10 00:34:52;;;;;;;4.20;2.53;;;19.80;51.10;;;;;;4959637;28;20055;-73
2021/06/10 00:37:18;;;;;;;4.50;2.20;;;19.80;51.00;;;;;;4959437;29;20042;-73
2021/06/10 00:39:44;;;;;;;4.22;2.60;;;19.80;53.20;;;;;;4952551;28;20045;-73
2021/06/10 00:42:10;;;;;;;4.07;2.72;;;19.70;53.70;;;;;;4959585;28;20034;-73
2021/06/10 00:44:36;;;;;;;4.45;2.45;;;19.70;54.40;;;;;;4959778;28;20027;-73
2021/06/10 00:47:03;;;;;;;3.90;2.40;;;19.70;53.70;;;;;;4956657;28;20094;-73
2021/06/10 00:49:29;;;;;;;4.25;2.75;;;19.70;53.10;;;;;;4948992;28;20487;-73
2021/06/10 00:51:55;;;;;;;4.60;2.75;;;19.70;54.30;;;;;;4955942;29;20023;-73
2021/06/10 00:54:21;;;;;;;5.53;3.20;;;19.60;55.70;;;;;;4958183;29;20081;-73
2021/06/10 00:56:48;;;;;;;5.80;2.80;;;19.60;55.40;;;;;;4959365;28;20438;-73
2021/06/10 00:59:15;;;;;;;3.47;2.42;;;19.60;55.20;;;;;;4962077;28;20027;-73
2021/06/10 01:01:41;;;;;;;5.25;3.03;;;19.60;53.70;;;;;;4959104;28;20030;-73
2021/06/10 01:04:07;;;;;;;4.68;2.80;;;19.50;53.40;;;;;;4959145;28;20019;-73
2021/06/10 01:06:54;;;;;;;5.07;2.70;;;19.50;53.30;;;;;;4959078;28;20038;-73
2021/06/10 01:09:41;;;;;;;4.53;3.00;;;19.50;54.10;;;;;;4959186;29;20074;-73
2021/06/10 01:12:17;;;;;;;4.20;3.00;;;19.50;55.30;;;;;;4959397;29;20028;-73
2021/06/10 01:14:54;;;;;;;5.63;3.72;;;19.50;55.20;;;;;;4959187;28;20138;-73
2021/06/10 01:17:21;;;;;;;4.55;2.92;;;19.40;56.20;;;;;;4959229;28;20042;-73
2021/06/10 01:20:07;;;;;;;4.95;3.10;;;19.40;54.60;;;;;;4958320;29;20024;-73
2021/06/10 01:22:44;;;;;;;4.88;2.85;;;19.40;53.50;;;;;;4958935;28;20031;-73
2021/06/10 01:25:15;;;;;;;5.18;3.40;;;19.40;53.00;;;;;;4959060;29;20390;-73
2021/06/10 01:27:57;;;;;;;5.00;3.50;;;19.40;53.20;;;;;;4958967;28;20032;-73
2021/06/10 01:30:30;;;;;;;6.93;3.50;;;19.30;52.80;;;;;;4952862;28;20051;-73
2021/06/10 01:33:00;;;;;;;6.63;4.10;;;19.30;52.70;;;;;;4946953;29;20030;-73
2021/06/10 01:35:29;;;;;;;6.93;4.63;;;19.30;56.30;;;;;;4958789;28;20066;-73
2021/06/10 01:37:57;;;;;;;6.60;3.80;;;19.20;56.40;;;;;;4956277;28;20039;-73
2021/06/10 01:40:25;;;;;;;5.28;3.40;;;19.20;55.80;;;;;;4951913;28;20122;-74
2021/06/10 01:42:51;;;;;;;5.97;3.63;;;19.20;57.30;;;;;;4947947;28;20188;-74
2021/06/10 01:45:18;;;;;;;5.72;4.10;;;19.20;57.50;;;;;;4957448;29;20111;-73
2021/06/10 01:47:46;;;;;;;5.57;4.13;;;19.20;58.60;;;;;;4959045;28;20031;-73
2021/06/10 01:50:14;;;;;;;7.32;5.20;;;19.00;60.00;;;;;;4957581;28;20438;-73
2021/06/10 01:52:42;;;;;;;5.72;4.47;;;18.90;60.60;;;;;;4959185;28;20402;-74
2021/06/10 01:55:12;;;;;;;6.85;4.13;;;18.90;59.60;;;;;;4958689;28;20023;-74
2021/06/10 01:57:39;;;;;;;6.55;4.38;;;18.90;57.20;;;;;;4959245;28;20032;-73
2021/06/10 02:00:11;;;;;;;7.35;4.40;;;18.90;56.90;;;;;;4962471;28;20015;-74
2021/06/10 02:02:37;;;;;;;6.78;4.90;;;18.90;56.90;;;;;;4961523;29;20030;-73
2021/06/10 02:05:06;;;;;;;6.82;4.75;;;19.00;56.10;;;;;;4962169;28;20079;-73
2021/06/10 02:07:36;;;;;;;7.25;4.88;;;19.00;57.20;;;;;;4962311;28;20109;-74
2021/06/10 02:10:05;;;;;;;7.00;4.97;;;18.90;58.40;;;;;;4950029;29;20490;-73
2021/06/10 02:12:32;;;;;;;6.57;4.72;;;18.90;59.00;;;;;;4962409;28;20033;-73
2021/06/10 02:15:01;;;;;;;5.75;4.15;;;18.90;58.90;;;;;;4962452;28;20019;-74
2021/06/10 02:17:27;;;;;;;6.35;3.97;;;18.90;57.80;;;;;;4960343;28;20028;-73
2021/06/10 02:19:53;;;;;;;6.22;4.32;;;18.90;56.20;;;;;;4954463;28;20700;-73
2021/06/10 02:22:18;;;;;;;6.18;4.80;;;18.90;55.30;;;;;;4962361;28;20047;-74
2021/06/10 02:24:47;;;;;;;8.25;5.10;;;18.90;56.70;;;;;;4961595;28;20398;-74
2021/06/10 02:27:12;;;;;;;7.82;5.45;;;18.90;56.10;;;;;;4962155;28;20027;-73
2021/06/10 02:29:38;;;;;;;9.82;6.28;;;18.90;58.40;;;;;;4955337;28;20449;-73
2021/06/10 02:32:04;;;;;;;6.68;5.13;;;18.90;59.00;;;;;;4962165;28;20505;-73
2021/06/10 02:34:31;;;;;;;9.95;6.43;;;18.90;57.80;;;;;;4961637;28;20557;-73
2021/06/10 02:36:57;;;;;;;7.72;4.85;;;18.80;58.30;;;;;;4961961;28;20434;-73
2021/06/10 02:39:23;;;;;;;6.93;5.20;;;18.80;58.00;;;;;;4954354;28;20042;-74
2021/06/10 02:41:52;;;;;;;7.07;5.28;;;18.80;58.20;;;;;;4960733;29;20034;-73
2021/06/10 02:44:18;;;;;;;8.75;5.70;;;18.80;58.60;;;;;;4949409;29;20023;-73
2021/06/10 02:46:45;;;;;;;8.73;6.30;;;18.80;58.90;;;;;;4961686;28;20115;-73
2021/06/10 02:49:12;;;;;;;7.78;5.95;;;18.80;58.70;;;;;;4960533;28;20063;-73
2021/06/10 02:51:39;;;;;;;8.30;5.47;;;18.80;58.90;;;;;;4959906;29;20031;-73
2021/06/10 02:54:10;;;;;;;8.13;5.72;;;18.80;59.50;;;;;;4961587;28;20031;-73
2021/06/10 02:56:37;;;;;;;7.70;5.25;;;18.80;59.30;;;;;;4961507;28;20038;-73
2021/06/10 02:59:04;;;;;;;9.30;5.93;;;18.80;58.20;;;;;;4960057;28;20042;-73
2021/06/10 03:01:38;;;;;;;7.45;5.75;;;18.70;58.80;;;;;;4960049;28;20502;-73
2021/06/10 03:04:05;;;;;;;7.35;4.70;;;18.70;57.70;;;;;;4961046;28;20023;-73
2021/06/10 03:06:32;;;;;;;6.85;4.60;;;18.70;56.50;;;;;;4961211;28;20110;-73
2021/06/10 03:08:59;;;;;;;7.80;5.30;;;18.70;55.90;;;;;;4960590;28;20038;-73
2021/06/10 03:11:25;;;;;;;7.50;5.43;;;18.70;56.60;;;;;;4960690;28;20027;-73
2021/06/10 03:13:51;;;;;;;8.98;6.18;;;18.70;58.00;;;;;;4950803;28;20023;-73
2021/06/10 03:16:18;;;;;;;7.78;5.63;;;18.70;59.10;;;;;;4958698;29;20039;-73
2021/06/10 03:18:45;;;;;;;7.65;5.53;;;18.60;57.80;;;;;;4961066;28;20078;-73
2021/06/10 03:21:11;;;;;;;7.60;5.88;;;18.60;58.70;;;;;;4960664;28;20464;-73
2021/06/10 03:23:37;;;;;;;9.00;6.15;;;18.60;59.20;;;;;;4960929;28;20082;-73
2021/06/10 03:26:04;;;;;;;8.45;5.50;;;18.60;58.80;;;;;;4960902;28;20032;-73
2021/06/10 03:28:31;;;;;;;8.15;5.90;;;18.60;59.40;;;;;;4958165;28;20031;-73
2021/06/10 03:30:57;;;;;;;9.68;6.55;;;18.50;60.40;;;;;;4958162;29;20043;-73
2021/06/10 03:33:24;;;;;;;9.18;6.50;;;18.50;60.40;;;;;;4961032;28;20442;-73
2021/06/10 03:35:50;;;;;;;9.02;6.38;;;18.50;59.60;;;;;;4960575;28;20034;-73
2021/06/10 03:38:17;;;;;;;10.23;7.18;;;18.50;60.20;;;;;;4956083;28;20023;-73
2021/06/10 03:40:45;;;;;;;8.90;6.80;;;18.50;59.90;;;;;;4958350;28;20046;-73
2021/06/10 03:43:13;;;;;;;9.43;6.55;;;18.50;60.20;;;;;;4960580;28;20038;-73
2021/06/10 03:45:40;;;;;;;11.20;6.65;;;18.50;60.70;;;;;;4960530;28;20233;-73
2021/06/10 03:48:09;;;;;;;9.82;6.28;;;18.50;60.60;;;;;;4958686;29;20035;-73
2021/06/10 03:50:37;;;;;;;10.80;6.32;;;18.50;59.80;;;;;;4959713;29;20056;-73
2021/06/10 03:53:04;;;;;;;8.50;5.60;;;18.50;58.50;;;;;;4960531;28;20110;-73
2021/06/10 03:55:30;;;;;;;9.57;6.40;;;18.50;57.90;;;;;;4960213;28;20050;-73
2021/06/10 03:57:56;;;;;;;9.63;6.65;;;18.60;57.30;;;;;;4960303;29;20368;-73
2021/06/10 04:00:21;;;;;;;9.50;6.97;;;18.60;59.50;;;;;;4959126;29;20031;-73
2021/06/10 04:02:47;;;;;;;7.97;6.43;;;18.50;60.80;;;;;;4960302;28;20498;-73
2021/06/10 04:05:13;;;;;;;9.80;7.00;;;18.60;59.00;;;;;;4960267;28;20078;-73
2021/06/10 04:07:39;;;;;;;10.30;6.22;;;18.60;57.80;;;;;;4960149;28;20027;-73
2021/06/10 04:10:05;;;;;;;10.70;6.60;;;18.60;57.70;;;;;;4960154;28;20024;-73
2021/06/10 04:12:31;;;;;;;10.45;7.50;;;18.60;58.80;;;;;;4960063;28;20548;-73
2021/06/10 04:14:57;;;;;;;9.95;6.95;;;18.60;61.70;;;;;;4960631;28;20066;-72
2021/06/10 04:17:23;;;;;;;9.60;6.53;;;18.60;59.70;;;;;;4958838;28;20031;-73
2021/06/10 04:19:49;;;;;;;10.40;6.28;;;18.60;59.40;;;;;;4959119;28;20099;-73
2021/06/10 04:22:15;;;;;;;10.70;6.25;;;18.60;59.10;;;;;;4959520;28;20054;-73
2021/06/10 04:24:42;;;;;;;10.40;6.32;;;18.60;59.10;;;;;;4959655;28;20485;-73
2021/06/10 04:27:08;;;;;;;8.90;5.90;;;18.60;59.50;;;;;;4959646;28;20023;-73
2021/06/10 04:29:34;;;;;;;12.23;7.38;;;18.60;61.20;;;;;;4953743;28;20022;-72
2021/06/10 04:32:00;;;;;;;9.70;6.75;;;18.60;61.40;;;;;;4959833;28;20027;-73
2021/06/10 04:34:26;;;;;;;11.75;7.10;;;18.60;61.50;;;;;;4959396;28;20055;-73
2021/06/10 04:36:52;;;;;;;10.18;6.35;;;18.60;59.80;;;;;;4959656;28;20059;-73
2021/06/10 04:39:18;;;;;;;10.05;7.25;;;18.60;59.90;;;;;;4951523;29;20028;-73
2021/06/10 04:41:44;;;;;;;11.70;7.13;;;18.60;61.00;;;;;;4959707;28;20063;-73
2021/06/10 04:44:09;;;;;;;10.43;6.97;;;18.60;61.10;;;;;;4959751;28;20042;-73
2021/06/10 04:46:35;;;;;;;11.38;6.70;;;18.60;60.20;;;;;;4959552;28;20043;-73
2021/06/10 04:49:03;;;;;;;9.23;6.53;;;18.60;60.80;;;;;;4958412;28;20494;-72
2021/06/10 04:51:29;;;;;;;12.13;7.47;;;18.60;60.40;;;;;;4959147;28;20460;-73
2021/06/10 04:53:55;;;;;;;9.13;6.45;;;18.60;61.10;;;;;;4959529;28;20059;-73
2021/06/10 04:56:22;;;;;;;10.93;7.03;;;18.50;59.50;;;;;;4959611;28;20024;-73
2021/06/10 04:58:49;;;;;;;8.98;6.05;;;18.50;59.70;;;;;;4954660;28;20542;-73
2021/06/10 05:01:15;;;;;;;10.05;7.05;;;18.50;61.70;;;;;;4953555;28;20051;-73
2021/06/10 05:03:40;;;;;;;11.27;7.47;;;18.50;61.80;;;;;;4959026;28;20094;-73
2021/06/10 05:06:06;;;;;;;9.85;6.93;;;18.50;60.20;;;;;;4959095;29;20027;-73
2021/06/10 05:08:33;;;;;;;9.40;6.13;;;18.50;60.90;;;;;;4959585;28;20465;-73
2021/06/10 05:10:59;;;;;;;11.88;7.70;;;18.50;61.50;;;;;;4959305;28;20032;-73
2021/06/10 05:13:25;;;;;;;9.13;6.47;;;18.50;61.70;;;;;;4959332;28;20114;-73
2021/06/10 05:15:50;;;;;;;8.57;5.75;;;18.50;60.60;;;;;;4959065;29;20102;-73
2021/06/10 05:18:16;;;;;;;11.10;7.50;;;18.60;59.30;;;;;;4959117;28;20031;-73
2021/06/10 05:20:43;;;;;;;10.45;6.97;;;18.60;62.40;;;;;;4959053;28;20031;-73
2021/06/10 05:23:08;;;;;;;8.82;6.05;;;18.60;61.10;;;;;;4959153;28;20030;-73
2021/06/10 05:25:34;;;;;;;9.57;6.22;;;18.60;60.00;;;;;;4959155;28;20020;-73
2021/06/10 05:28:00;;;;;;;9.18;6.38;;;18.60;61.70;;;;;;4959125;28;20082;-73
2021/06/10 05:30:26;;;;;;;8.77;5.95;;;18.60;60.40;;;;;;4952646;29;20042;-73
2021/06/10 05:32:52;;;;;;;8.57;6.00;;;18.60;59.70;;;;;;4959870;28;20035;-73
2021/06/10 05:35:18;;;;;;;9.80;6.35;;;18.60;59.80;;;;;;4963044;28;20038;-73
2021/06/10 05:37:44;;;;;;;10.75;6.68;;;18.60;61.80;;;;;;4961388;28;20023;-73
2021/06/10 05:40:10;;;;;;;8.95;6.50;;;18.60;61.80;;;;;;4955869;28;20059;-73
2021/06/10 05:42:36;;;;;;;10.32;6.57;;;18.70;61.80;;;;;;4962891;28;20019;-73
2021/06/10 05:45:03;;;;;;;13.02;7.35;;;18.70;62.40;;;;;;4962353;28;20020;-73
2021/06/10 05:47:29;;;;;;;11.32;6.93;;;18.70;62.90;;;;;;4962540;28;20028;-73
2021/06/10 05:49:55;;;;;;;10.20;7.45;;;18.70;62.60;;;;;;4961593;28;20441;-72
2021/06/10 05:52:23;;;;;;;12.55;7.15;;;18.70;63.90;;;;;;4963031;28;20031;-73
2021/06/10 05:54:49;;;;;;;10.32;6.75;;;18.70;61.90;;;;;;4962573;28;20490;-73
2021/06/10 05:57:15;;;;;;;10.82;8.05;;;18.70;62.70;;;;;;4962649;28;20086;-73
2021/06/10 05:59:43;;;;;;;11.38;7.22;;;18.70;64.80;;;;;;4962500;28;20031;-73
2021/06/10 06:02:09;;;;;;;10.60;7.53;;;18.80;63.00;;;;;;4962633;28;20034;-73
2021/06/10 06:04:34;;;;;;;12.27;7.68;;;18.70;62.70;;;;;;4962219;28;20020;-73
2021/06/10 06:07:00;;;;;;;12.48;7.68;;;18.70;63.00;;;;;;4962516;28;20065;-73
2021/06/10 06:09:26;;;;;;;10.95;7.50;;;18.60;63.90;;;;;;4962236;29;20036;-72
2021/06/10 06:11:54;;;;;;;12.10;8.30;;;18.60;63.50;;;;;;4962342;29;20023;-72
2021/06/10 06:14:25;;;;;;;12.65;8.45;;;18.60;63.50;;;;;;4962312;28;20099;-73
2021/06/10 06:16:51;;;;;;;12.50;7.90;;;18.60;64.40;;;;;;4962278;29;20438;-73
2021/06/10 06:19:18;;;;;;;12.20;7.97;;;18.60;65.00;;;;;;4972212;28;20078;-73
2021/06/10 06:21:44;;;;;;;10.80;7.47;;;18.60;65.40;;;;;;4961851;28;20422;-73
2021/06/10 06:24:11;;;;;;;12.88;7.30;;;18.50;64.50;;;;;;4961706;28;20031;-73
2021/06/10 06:26:37;;;;;;;11.95;7.22;;;18.60;64.80;;;;;;4960804;29;20031;-73
2021/06/10 06:29:03;;;;;;;12.85;7.45;;;18.60;63.50;;;;;;4955634;28;20062;-73
2021/06/10 06:31:30;;;;;;;12.80;7.30;;;18.60;64.80;;;;;;4962208;28;20042;-73
2021/06/10 06:33:57;;;;;;;11.38;7.45;;;18.70;65.70;;;;;;4961941;28;20430;-73
2021/06/10 06:36:23;;;;;;;10.65;7.07;;;18.70;63.40;;;;;;4961850;28;20446;-72
2021/06/10 06:38:49;;;;;;;13.50;7.25;;;18.70;64.70;;;;;;4954610;28;20026;-73
2021/06/10 06:41:15;;;;;;;11.02;7.00;;;18.80;63.20;;;;;;4961826;28;20039;-73
2021/06/10 06:43:41;;;;;;;11.88;7.50;;;18.80;63.60;;;;;;4961520;28;20065;-73
2021/06/10 06:46:08;;;;;;;11.55;6.93;;;18.90;63.20;;;;;;4961751;28;20110;-72
2021/06/10 06:48:34;;;;;;;10.57;6.75;;;19.00;63.50;;;;;;4960631;28;20027;-73
2021/06/10 06:51:00;;;;;;;9.05;5.57;;;19.00;62.30;;;;;;4961441;28;20034;-73
2021/06/10 06:53:29;;;;;;;8.98;6.03;;;19.10;62.50;;;;;;4961549;29;20829;-72
2021/06/10 06:55:56;;;;;;;11.95;6.70;;;19.20;62.60;;;;;;4961624;28;20027;-72
2021/06/10 06:58:22;;;;;;;10.82;6.10;;;19.30;63.10;;;;;;4959966;28;20031;-73
2021/06/10 07:00:48;;;;;;;13.55;6.40;;;19.30;63.20;;;;;;4961489;28;20020;-73
2021/06/10 07:03:14;;;;;;;11.93;6.75;;;19.40;64.40;;;;;;4960999;28;20500;-73
2021/06/10 07:05:40;;;;;;;8.93;5.68;;;19.40;63.20;;;;;;4961380;28;20023;-73
2021/06/10 07:08:06;;;;;;;11.77;5.88;;;19.40;62.20;;;;;;4961253;28;20027;-73
2021/06/10 07:10:32;;;;;;;9.13;5.65;;;19.50;61.60;;;;;;4961473;28;20494;-73
2021/06/10 07:12:58;;;;;;;9.85;6.25;;;19.50;61.60;;;;;;4961231;28;20403;-73
2021/06/10 07:15:23;;;;;;;8.13;5.97;;;19.50;61.70;;;;;;4961439;28;20058;-73
2021/06/10 07:17:49;;;;;;;11.40;6.97;;;19.60;62.30;;;;;;4948229;28;20082;-73
2021/06/10 07:20:15;;;;;;;11.30;7.57;;;19.70;62.40;;;;;;4961037;28;20031;-73
2021/06/10 07:22:41;;;;;;;13.25;7.20;;;19.70;63.10;;;;;;4960955;28;20461;-74
2021/06/10 07:25:08;;;;;;;11.13;6.57;;;19.90;63.20;;;;;;4960678;28;20023;-73
2021/06/10 07:27:35;;;;;;;9.85;6.47;;;20.20;64.30;;;;;;4960906;28;20062;-75
2021/06/10 07:30:01;;;;;;;9.68;6.15;;;20.60;65.20;;;;;;4954763;28;20118;-75
2021/06/10 07:32:28;;;;;;;8.15;5.78;;;21.20;66.70;;;;;;4960716;28;20050;-74
2021/06/10 07:34:54;;;;;;;9.60;5.57;;;21.90;67.70;;;;;;4960742;29;20486;-74
2021/06/10 07:37:20;;;;;;;7.22;4.65;;;22.50;67.00;;;;;;4959227;28;20038;-73
2021/06/10 07:39:46;;;;;;;6.95;4.10;;;22.80;64.10;;;;;;4953307;28;20043;-74
2021/06/10 07:42:12;;;;;;;8.68;4.85;;;23.10;64.50;;;;;;4960296;28;20023;-73
2021/06/10 07:44:38;;;;;;;7.55;5.28;;;23.50;62.60;;;;;;4959391;29;20071;-72
2021/06/10 07:47:05;;;;;;;6.63;4.10;;;23.80;61.70;;;;;;4960375;28;20490;-73
2021/06/10 07:49:33;;;;;;;6.25;4.05;;;23.80;60.50;;;;;;4950980;29;20058;-73
2021/06/10 07:51:59;;;;;;;7.13;4.05;;;24.00;61.40;;;;;;4943419;29;20031;-72
2021/06/10 07:54:26;;;;;;;5.82;3.55;;;24.40;61.90;;;;;;4952230;29;20032;-73
2021/06/10 07:56:53;;;;;;;6.05;3.50;;;24.80;62.40;;;;;;4951471;28;20031;-72
2021/06/10 07:59:25;;;;;;;5.45;3.03;;;25.20;61.30;;;;;;4946827;29;20098;-73
2021/06/10 08:01:51;;;;;;;6.15;3.15;;;25.70;61.30;;;;;;4950038;29;20027;-72
2021/06/10 08:04:17;;;;;;;5.95;3.22;;;26.00;58.60;;;;;;4958922;29;20031;-74
2021/06/10 08:06:43;;;;;;;5.22;3.50;;;26.10;58.40;;;;;;4960067;29;20434;-73
2021/06/10 08:09:09;;;;;;;5.65;3.33;;;26.20;58.60;;;;;;4960037;28;20490;-73
2021/06/10 08:11:35;;;;;;;5.22;3.55;;;26.40;58.80;;;;;;4959992;28;20513;-73
2021/06/10 08:14:01;;;;;;;4.82;2.58;;;26.80;60.40;;;;;;4960265;28;20031;-73
2021/06/10 08:16:27;;;;;;;4.55;2.60;;;27.40;56.70;;;;;;4959964;28;20570;-73
2021/06/10 08:18:53;;;;;;;4.75;2.33;;;27.80;58.20;;;;;;4958604;28;20031;-72
2021/06/10 08:21:18;;;;;;;3.85;2.05;;;28.10;57.40;;;;;;4959338;28;20055;-73
2021/06/10 08:23:44;;;;;;;4.20;2.10;;;28.20;55.90;;;;;;4950930;28;20063;-73
2021/06/10 08:26:10;;;;;;;5.30;2.17;;;28.60;55.90;;;;;;4959794;29;20055;-73
2021/06/10 08:28:36;;;;;;;4.30;2.05;;;29.00;56.20;;;;;;4956017;29;20024;-73
2021/06/10 08:31:02;;;;;;;4.95;2.15;;;29.40;56.10;;;;;;4957567;29;20151;-73
2021/06/10 08:33:28;;;;;;;5.40;2.08;;;29.90;54.80;;;;;;4959838;28;20038;-73
2021/06/10 08:35:56;;;;;;;2.25;1.10;;;30.30;54.10;;;;;;4958210;29;20028;-73
2021/06/10 08:38:22;;;;;;;4.25;1.25;;;30.80;52.00;;;;;;4958404;28;20031;-73
2021/06/10 08:40:48;;;;;;;2.78;1.27;;;31.00;52.80;;;;;;4951005;28;20528;-73
2021/06/10 08:43:15;;;;;;;2.70;1.15;;;31.10;52.60;;;;;;4958142;29;20118;-73
2021/06/10 08:45:47;;;;;;;2.78;1.10;;;31.10;51.50;;;;;;4957703;29;20027;-73
2021/06/10 08:48:13;;;;;;;2.15;0.90;;;31.00;50.60;;;;;;4958851;28;20078;-73
2021/06/10 08:50:39;;;;;;;3.83;1.50;;;31.00;50.90;;;;;;4956930;29;20031;-72
2021/06/10 08:53:07;;;;;;;2.70;1.10;;;31.10;51.80;;;;;;4956080;28;20030;-72
2021/06/10 08:55:33;;;;;;;2.92;1.25;;;31.50;49.80;;;;;;4951450;29;20482;-72
2021/06/10 08:57:59;;;;;;;3.45;1.20;;;31.90;52.40;;;;;;4950783;28;20047;-73
2021/06/10 09:00:28;;;;;;;3.38;1.10;;;32.40;52.60;;;;;;4949383;28;20030;-73
2021/06/10 09:02:59;;;;;;;2.20;1.08;;;32.90;50.90;;;;;;4958362;28;20015;-73
2021/06/10 09:05:27;;;;;;;3.75;1.30;;;33.40;50.40;;;;;;4948837;28;20534;-73
2021/06/10 09:07:55;;;;;;;2.83;1.10;;;33.80;49.90;;;;;;4956363;28;20035;-73
2021/06/10 09:10:30;;;;;;;3.35;1.17;;;34.20;49.70;;;;;;4953206;28;20024;-73
2021/06/10 09:13:00;;;;;;;4.13;1.40;;;34.60;48.30;;;;;;4957161;28;20038;-73
2021/06/10 09:15:30;;;;;;;2.40;0.95;;;35.00;48.60;;;;;;4957746;28;20031;-73
2021/06/10 09:18:01;;;;;;;3.38;1.20;;;35.30;46.20;;;;;;4958041;28;20031;-73
2021/06/10 09:20:35;;;;;;;3.20;1.02;;;35.50;45.80;;;;;;4957719;28;20452;-72
2021/06/10 09:23:14;;;;;;;4.93;1.05;;;35.60;45.40;;;;;;4958266;28;20390;-72
2021/06/10 09:25:42;;;;;;;4.75;1.27;;;35.80;45.70;;;;;;4956820;29;20469;-72
2021/06/10 09:28:08;;;;;;;4.60;1.35;;;35.70;46.30;;;;;;4958771;28;20090;-73
2021/06/10 09:30:41;;;;;;;4.38;1.08;;;35.80;46.40;;;;;;4956411;29;20114;-72
2021/06/10 09:33:12;;;;;;;5.05;1.23;;;35.90;45.40;;;;;;4946246;28;20032;-74
2021/06/10 09:35:40;;;;;;;5.28;2.20;;;36.20;45.10;;;;;;4943394;29;20125;-74
2021/06/10 09:38:15;;;;;;;7.13;3.38;;;36.40;44.80;;;;;;4949907;28;20028;-76
2021/06/10 09:40:42;;;;;;;3.13;1.20;;;36.70;45.50;;;;;;4951280;28;20102;-75
2021/06/10 09:43:08;;;;;;;3.00;1.02;;;37.00;44.40;;;;;;4954468;28;20401;-72
2021/06/10 09:45:34;;;;;;;2.85;0.93;;;36.90;42.90;;;;;;4957291;29;22414;-72
2021/06/10 09:48:05;;;;;;;3.30;1.00;;;36.80;43.70;;;;;;4958835;28;20027;-74
2021/06/10 09:50:52;;;;;;;2.58;0.82;;;36.70;41.60;;;;;;4957441;29;20032;-73
2021/06/10 09:53:23;;;;;;;2.72;1.00;;;36.40;42.60;;;;;;4945117;29;20038;-73
2021/06/10 09:56:09;;;;;;;3.15;1.00;;;35.90;42.20;;;;;;4955403;28;20035;-72
2021/06/10 09:58:53;;;;;;;2.60;1.00;;;35.20;41.00;;;;;;4958616;28;20039;-73
2021/06/10 10:01:20;;;;;;;2.50;1.17;;;34.50;41.20;;;;;;4957349;28;20405;-73
2021/06/10 10:03:49;;;;;;;4.00;1.00;;;33.90;42.10;;;;;;4956733;28;20039;-73
2021/06/10 10:06:20;;;;;;;2.95;1.10;;;33.50;42.90;;;;;;4956898;28;20039;-73
2021/06/10 10:08:48;;;;;;;4.80;1.35;;;33.20;43.20;;;;;;4957660;28;20028;-73
2021/06/10 10:11:15;;;;;;;4.82;1.30;;;33.00;44.40;;;;;;4956613;29;20047;-73
2021/06/10 10:13:43;;;;;;;3.05;1.20;;;32.80;43.00;;;;;;4958145;28;20398;-71
2021/06/10 10:16:10;;;;;;;2.55;1.10;;;32.50;42.60;;;;;;4958180;28;20039;-71
2021/06/10 10:18:37;;;;;;;5.57;2.72;;;32.20;43.50;;;;;;4957127;28;20035;-72
2021/06/10 10:21:05;;;;;;;3.95;2.17;;;31.80;44.30;;;;;;4954616;29;20023;-72
2021/06/10 10:23:34;;;;;;;4.03;2.20;;;31.50;44.70;;;;;;4960805;28;20023;-73
2021/06/10 10:26:06;;;;;;;4.55;2.03;;;31.20;45.60;;;;;;4961471;28;20038;-73
2021/06/10 10:28:34;;;;;;;5.40;2.28;;;31.00;45.70;;;;;;4957786;28;20023;-73
2021/06/10 10:31:05;;;;;;;4.15;1.70;;;30.70;45.20;;;;;;4961065;28;20070;-74
2021/06/10 10:33:31;;;;;;;4.15;1.65;;;30.50;45.20;;;;;;4959090;28;20035;-74
2021/06/10 10:36:00;;;;;;;4.72;1.98;;;30.30;45.40;;;;;;4961106;28;20031;-74
2021/06/10 10:38:40;;;;;;;4.35;1.88;;;30.00;45.30;;;;;;4953795;28;20028;-74
2021/06/10 10:41:11;;;;;;;5.55;2.20;;;29.80;45.70;;;;;;4958187;29;20113;-72
2021/06/10 10:43:38;;;;;;;5.13;2.63;;;30.00;47.60;;;;;;4953444;29;20026;-71
2021/06/10 10:46:20;;;;;;;6.03;3.10;;;30.70;47.50;;;;;;4961446;28;20031;-70
2021/06/10 10:48:47;;;;;;;;;;;31.30;47.40;;;;;;4958648;29;20387;-71
2021/06/10 10:51:25;;;;;;;6.38;4.10;;;31.50;45.70;;;;;;4960470;29;19946;-70
2021/06/10 10:54:02;;;;;;;5.45;2.92;;;31.50;45.40;;;;;;4950145;29;20031;-71
2021/06/10 10:56:42;;;;;;;4.05;2.10;;;31.40;45.80;;;;;;4958176;28;20036;-71
2021/06/10 10:59:12;;;;;;;8.20;5.18;;;31.10;45.40;;;;;;4961566;28;20046;-71
2021/06/10 11:01:38;;;;;;;5.38;3.03;;;30.80;45.40;;;;;;4961418;29;20082;-71
2021/06/10 11:04:04;;;;;;;5.50;3.25;;;30.50;45.40;;;;;;4960333;28;20048;-70
2021/06/10 11:06:30;;;;;;;6.22;2.80;;;30.20;46.30;;;;;;4961158;28;20036;-72
2021/06/10 11:09:10;;;;;;;4.68;2.60;;;29.90;46.00;;;;;;4959974;28;20799;-70
2021/06/10 11:11:54;;;;;;;5.18;2.75;;;29.70;46.40;;;;;;4957551;29;20039;-72
2021/06/10 11:14:43;;;;;;;5.32;2.70;;;29.50;46.50;;;;;;4954365;29;20031;-71
2021/06/10 11:17:32;;;;;;;7.90;4.65;;;29.50;46.90;;;;;;4959081;28;20434;-71
2021/06/10 11:20:07;;;;;;;4.80;2.60;;;30.00;48.20;;;;;;4958334;29;20121;-71
2021/06/10 11:22:38;;;;;;;5.60;2.35;;;30.60;48.70;;;;;;4959634;28;20031;-71
2021/06/10 11:25:15;;;;;;;5.03;2.50;;;31.40;47.60;;;;;;4960127;28;20024;-71
2021/06/10 11:27:47;;;;;;;4.80;2.42;;;32.20;47.00;;;;;;4960722;28;20094;-71
2021/06/10 11:30:22;;;;;;;4.22;1.98;;;32.90;44.20;;;;;;4956247;28;20027;-71
2021/06/10 11:33:12;;;;;;;4.28;2.20;;;33.40;44.70;;;;;;4954193;29;20730;-72
2021/06/10 11:35:46;;;;;;;4.57;2.33;;;33.70;45.20;;;;;;4959834;28;20031;-72
2021/06/10 11:38:15;;;;;;;6.22;2.42;;;34.00;45.00;;;;;;4949380;29;20023;-70
2021/06/10 11:40:44;;;;;;;3.42;1.98;;;34.30;44.90;;;;;;4957251;28;20047;-74
2021/06/10 11:43:12;;;;;;;5.82;2.60;;;34.50;44.00;;;;;;4949428;29;20035;-73
2021/06/10 11:45:39;;;;;;;4.30;2.60;;;34.30;43.10;;;;;;4960020;28;20062;-75
2021/06/10 11:48:05;;;;;;;4.78;2.30;;;34.00;43.10;;;;;;4960249;28;20031;-74
2021/06/10 11:50:36;;;;;;;3.95;2.15;;;34.00;43.70;;;;;;4959841;29;20399;-74
2021/06/10 11:53:08;;;;;;;4.10;2.40;;;34.00;42.80;;;;;;4960637;28;20023;-74
2021/06/10 11:55:39;;;;;;;5.22;1.98;;;33.80;43.30;;;;;;4955136;28;20032;-74
2021/06/10 11:58:09;;;;;;;5.07;1.90;;;33.50;43.70;;;;;;4952139;29;20130;-74
2021/06/10 12:00:48;;;;;;;5.55;3.30;;;33.20;43.90;;;;;;4947702;29;20482;-74
2021/06/10 12:03:16;;;;;;;4.63;2.38;;;32.90;43.70;;;;;;4960334;28;20094;-74
2021/06/10 12:05:55;;;;;;;4.70;2.28;;;32.60;43.30;;;;;;4958850;29;20027;-77
2021/06/10 12:08:25;;;;;;;5.25;2.20;;;32.30;43.70;;;;;;4961075;28;20028;-75
2021/06/10 12:10:54;;;;;;;4.68;2.47;;;32.00;43.70;;;;;;4963117;28;20046;-74
2021/06/10 12:13:27;;;;;;;5.45;2.35;;;31.70;43.80;;;;;;4961240;28;20086;-75
2021/06/10 12:15:53;;;;;;;5.00;2.42;;;31.60;43.70;;;;;;4959963;28;20474;-75
2021/06/10 12:18:20;;;;;;;5.90;2.03;;;31.40;43.40;;;;;;4959124;28;20086;-74
2021/06/10 12:20:49;;;;;;;5.10;2.40;;;31.30;44.50;;;;;;4957357;28;20027;-75
2021/06/10 12:23:19;;;;;;;5.85;2.78;;;31.20;45.00;;;;;;4954180;28;20030;-75
2021/06/10 12:25:56;;;;;;;5.50;2.47;;;31.20;45.40;;;;;;4959434;28;20026;-75
2021/06/10 12:28:27;;;;;;;3.65;2.17;;;31.20;45.50;;;;;;4957475;28;20042;-75
2021/06/10 12:31:09;;;;;;;5.65;2.47;;;31.10;44.80;;;;;;4942172;29;20528;-75
2021/06/10 12:33:36;;;;;;;4.63;2.30;;;31.00;44.40;;;;;;4959771;28;20086;-75
2021/06/10 12:36:12;;;;;;;5.15;2.35;;;30.90;45.30;;;;;;4959166;28;20027;-74
2021/06/10 12:38:39;;;;;;;5.13;2.40;;;30.70;45.80;;;;;;4952769;28;20497;-74
2021/06/10 12:41:20;;;;;;;4.03;2.20;;;30.60;45.90;;;;;;4959511;28;20070;-74
2021/06/10 12:43:47;;;;;;;4.10;2.20;;;30.50;46.40;;;;;;4959204;28;20024;-74
2021/06/10 12:46:13;;;;;;;5.00;2.50;;;30.30;46.50;;;;;;4959492;28;20046;-75
2021/06/10 12:48:40;;;;;;;4.55;2.67;;;30.10;46.20;;;;;;4957917;28;20474;-75
2021/06/10 12:51:25;;;;;;;5.25;2.75;;;30.10;46.70;;;;;;4958915;28;20023;-75